aviador You're here:

KAWM Decoded Metar

W MEMPHIS MUNI in AR, USA
Report Time2017-05-26 12:53:00
UTC Time2017-05-26 13:09:28
Flight Rules vfr VFR
Wind180° at 15 kt
W.Decomp.*RWY 17: 14.8 kt HW 2.3 kt RCW
W.Rank180° ranks 2
Current wind is above 180° avg. (8.0)
Visibility9999 m
Phenomena:N/A
Clouds:N/A
Expected CloudBase > 1,200 ft AGL from Temp-Dew spread
CeilingNone
Temp21°C (ISA +6)
Dew Point18°C (83% RH)
AAT18.4°C
QNH1012 hPa
Density Alt1,270 ft
Elevation213 ft
Report Wrong Elevation
Raw Report
KAWM 261253Z AUTO 18015KT 10SM CLR 21/18 A2987 RMK AO2 SLP112
T02110178=

Extra information for KAWM:More info

Metar Taf Metar & Taf Last 4 Metars F.Rules Stats Wind Profile Meteogram Temp Stats Airport Information Weather charts Add Link Nearby VenuesMetar ALERT Operation Metar Decoded Social comments

AIRNAV info for KAWM